createdAt,value
2022-07-26T00:01:53.634Z,16.00
2022-07-26T00:04:21.482Z,16.00
2022-07-26T00:06:48.896Z,16.00
2022-07-26T00:09:17.413Z,16.00
2022-07-26T00:11:45.368Z,16.00
2022-07-26T00:14:13.145Z,16.00
2022-07-26T00:16:41.154Z,15.90
2022-07-26T00:19:09.098Z,15.90
2022-07-26T00:21:37.528Z,15.90
2022-07-26T00:24:09.005Z,15.90
2022-07-26T00:26:36.787Z,15.90
2022-07-26T00:29:06.312Z,15.90
2022-07-26T00:31:34.270Z,15.90
2022-07-26T00:34:01.970Z,15.90
2022-07-26T00:36:30.001Z,15.90
2022-07-26T00:38:57.633Z,15.90
2022-07-26T00:41:25.327Z,15.90
2022-07-26T00:44:00.203Z,15.80
2022-07-26T00:46:28.282Z,15.80
2022-07-26T00:48:56.009Z,15.80
2022-07-26T00:51:24.019Z,15.80
2022-07-26T00:53:51.551Z,15.70
2022-07-26T00:56:19.256Z,15.70
2022-07-26T00:58:47.070Z,15.70
2022-07-26T01:01:14.804Z,15.70
2022-07-26T01:03:42.421Z,15.70
2022-07-26T01:06:10.550Z,15.70
2022-07-26T01:08:38.489Z,15.70
2022-07-26T01:11:06.312Z,15.70
2022-07-26T01:13:35.461Z,15.70
2022-07-26T01:16:03.917Z,15.60
2022-07-26T01:18:31.457Z,15.60
2022-07-26T01:21:09.639Z,15.60
2022-07-26T01:23:42.767Z,15.60
2022-07-26T01:26:10.811Z,15.60
2022-07-26T01:28:39.593Z,15.50
2022-07-26T01:31:08.753Z,15.60
2022-07-26T01:33:36.434Z,15.50
2022-07-26T01:36:04.067Z,15.50
2022-07-26T01:38:31.584Z,15.60
2022-07-26T01:40:59.163Z,15.50
2022-07-26T01:43:26.947Z,15.50
2022-07-26T01:45:55.594Z,15.50
2022-07-26T01:48:23.488Z,15.50
2022-07-26T01:50:51.025Z,15.40
2022-07-26T01:53:18.729Z,15.40
2022-07-26T01:55:46.363Z,15.40
2022-07-26T01:58:13.922Z,15.40
2022-07-26T02:00:41.468Z,15.40
2022-07-26T02:03:09.199Z,15.40
2022-07-26T02:05:36.762Z,15.40
2022-07-26T02:08:04.622Z,15.40
2022-07-26T02:10:50.645Z,15.40
2022-07-26T02:13:18.535Z,15.40
2022-07-26T02:15:46.110Z,15.30
2022-07-26T02:18:13.796Z,15.30
2022-07-26T02:20:41.445Z,15.30
2022-07-26T02:23:09.000Z,15.30
2022-07-26T02:25:36.477Z,15.30
2022-07-26T02:28:04.394Z,15.30
2022-07-26T02:30:31.923Z,15.20
2022-07-26T02:32:59.560Z,15.20
2022-07-26T02:35:27.548Z,15.20
2022-07-26T02:37:55.167Z,15.20
2022-07-26T02:40:22.725Z,15.20
2022-07-26T02:42:50.382Z,15.20
2022-07-26T02:45:17.849Z,15.20
2022-07-26T02:47:50.013Z,15.20
2022-07-26T02:50:26.548Z,15.20
2022-07-26T02:52:54.945Z,15.20
2022-07-26T02:55:24.697Z,15.20
2022-07-26T02:57:52.987Z,15.20
2022-07-26T03:00:23.805Z,15.20
2022-07-26T03:02:51.872Z,15.20
2022-07-26T03:05:20.484Z,15.20
2022-07-26T03:07:48.486Z,15.20
2022-07-26T03:10:16.069Z,15.20
2022-07-26T03:12:43.973Z,15.30
2022-07-26T03:15:12.023Z,15.30
2022-07-26T03:17:39.712Z,15.30
2022-07-26T03:20:08.137Z,15.30
2022-07-26T03:22:35.751Z,15.30
2022-07-26T03:25:03.531Z,15.40
2022-07-26T03:27:31.246Z,15.40
2022-07-26T03:29:59.169Z,15.40
2022-07-26T03:32:27.162Z,15.40
2022-07-26T03:34:54.592Z,15.40
2022-07-26T03:37:23.426Z,15.40
2022-07-26T03:39:51.270Z,15.40
2022-07-26T03:42:19.026Z,15.50
2022-07-26T03:44:46.527Z,15.60
2022-07-26T03:47:14.360Z,15.60
2022-07-26T03:49:41.806Z,15.60
2022-07-26T03:52:11.114Z,15.60
2022-07-26T03:54:38.637Z,15.70
2022-07-26T03:57:06.129Z,15.70
2022-07-26T03:59:34.057Z,15.70
2022-07-26T04:02:01.891Z,15.70
2022-07-26T04:04:29.474Z,15.80
2022-07-26T04:06:57.252Z,15.80
2022-07-26T04:09:25.176Z,15.80
2022-07-26T04:11:52.826Z,15.90
2022-07-26T04:14:20.348Z,15.90
2022-07-26T04:16:48.133Z,16.00
2022-07-26T04:19:15.708Z,16.10
2022-07-26T04:21:43.316Z,16.10
2022-07-26T04:24:11.104Z,16.20
2022-07-26T04:26:39.144Z,16.30
2022-07-26T04:29:06.602Z,16.30
2022-07-26T04:31:36.351Z,16.30
2022-07-26T04:34:04.888Z,16.30
2022-07-26T04:36:33.178Z,16.40
2022-07-26T04:39:00.704Z,16.40
2022-07-26T04:41:28.447Z,16.40
2022-07-26T04:43:56.521Z,16.40
2022-07-26T04:46:25.573Z,16.40
2022-07-26T04:48:53.544Z,16.40
2022-07-26T04:51:21.594Z,16.40
2022-07-26T04:53:49.232Z,16.40
2022-07-26T04:56:16.934Z,16.50
2022-07-26T04:58:44.491Z,16.50
2022-07-26T05:01:12.363Z,16.50
2022-07-26T05:03:40.268Z,16.50
2022-07-26T05:06:08.226Z,16.50
2022-07-26T05:08:35.845Z,16.50
2022-07-26T05:11:04.403Z,16.60
2022-07-26T05:13:31.912Z,16.60
2022-07-26T05:16:01.720Z,16.60
2022-07-26T05:18:31.540Z,16.70
2022-07-26T05:20:59.733Z,16.70
2022-07-26T05:23:27.257Z,16.70
2022-07-26T05:25:55.605Z,16.80
2022-07-26T05:28:23.136Z,16.90
2022-07-26T05:30:50.980Z,16.90
2022-07-26T05:33:18.539Z,16.90
2022-07-26T05:35:46.107Z,17.00
2022-07-26T05:38:13.629Z,17.00
2022-07-26T05:40:41.242Z,17.20
2022-07-26T05:43:08.718Z,17.30
2022-07-26T05:45:36.335Z,17.30
2022-07-26T05:48:04.064Z,17.30
2022-07-26T05:50:33.167Z,17.40
2022-07-26T05:53:00.588Z,17.40
2022-07-26T05:55:28.317Z,17.40
2022-07-26T05:57:55.929Z,17.40
2022-07-26T06:00:23.600Z,17.40
2022-07-26T06:02:51.206Z,17.40
2022-07-26T06:05:19.112Z,17.40
2022-07-26T06:07:46.840Z,17.50
2022-07-26T06:10:14.675Z,17.60
2022-07-26T06:12:42.623Z,17.70
2022-07-26T06:15:15.398Z,17.60
2022-07-26T06:17:43.676Z,17.60
2022-07-26T06:20:11.897Z,17.90
2022-07-26T06:22:39.608Z,18.00
2022-07-26T06:25:07.630Z,18.20
2022-07-26T06:27:35.336Z,18.30
2022-07-26T06:30:02.867Z,18.20
2022-07-26T06:32:30.565Z,18.20
2022-07-26T06:34:58.128Z,18.40
2022-07-26T06:37:26.061Z,18.40
2022-07-26T06:39:53.825Z,18.50
2022-07-26T06:42:21.421Z,18.60
2022-07-26T06:44:48.866Z,18.60
2022-07-26T06:47:16.495Z,18.70
2022-07-26T06:49:45.119Z,18.70
2022-07-26T06:52:12.675Z,18.90
2022-07-26T06:54:40.163Z,18.90
2022-07-26T06:57:08.171Z,19.00
2022-07-26T06:59:35.997Z,19.00
2022-07-26T07:02:04.594Z,19.10
2022-07-26T07:04:33.452Z,19.10
2022-07-26T07:07:06.435Z,19.20
2022-07-26T07:09:35.173Z,19.20
2022-07-26T07:12:09.710Z,19.40
2022-07-26T07:14:39.554Z,19.30
2022-07-26T07:17:13.119Z,19.30
2022-07-26T07:19:42.629Z,19.40
2022-07-26T07:22:12.667Z,19.40
2022-07-26T07:24:42.067Z,19.40
2022-07-26T07:27:10.564Z,19.40
2022-07-26T07:29:41.391Z,19.40
2022-07-26T07:32:18.452Z,19.60
2022-07-26T07:34:50.351Z,19.90
2022-07-26T07:37:19.959Z,19.80
2022-07-26T07:39:48.749Z,20.00
2022-07-26T07:42:19.648Z,19.90
2022-07-26T07:44:47.737Z,19.90
2022-07-26T07:47:15.631Z,19.80
2022-07-26T07:49:43.457Z,20.00
2022-07-26T07:52:11.082Z,20.00
2022-07-26T07:54:38.873Z,20.00
2022-07-26T07:57:06.491Z,20.10
2022-07-26T07:59:33.984Z,20.20
2022-07-26T08:02:07.249Z,20.30
2022-07-26T08:04:34.876Z,20.30
2022-07-26T08:07:02.856Z,20.30
2022-07-26T08:09:30.479Z,20.40
2022-07-26T08:12:02.339Z,20.60
2022-07-26T08:14:30.270Z,20.60
2022-07-26T08:16:58.074Z,20.60
2022-07-26T08:19:26.463Z,20.70
2022-07-26T08:21:56.821Z,20.70
2022-07-26T08:24:24.839Z,20.70
2022-07-26T08:26:54.411Z,20.80
2022-07-26T08:29:21.991Z,20.80
2022-07-26T08:31:51.026Z,20.90
2022-07-26T08:34:19.004Z,21.10
2022-07-26T08:37:14.362Z,21.00
2022-07-26T08:39:34.287Z,20.90
2022-07-26T08:42:04.371Z,21.00
2022-07-26T08:44:32.010Z,21.00
2022-07-26T08:46:59.752Z,21.00
2022-07-26T08:49:27.534Z,21.10
2022-07-26T08:51:57.153Z,21.10
2022-07-26T08:54:24.844Z,21.20
2022-07-26T08:56:53.394Z,21.40
2022-07-26T08:59:23.235Z,21.40
2022-07-26T09:02:04.342Z,21.40
2022-07-26T09:04:41.637Z,21.50
2022-07-26T09:07:19.755Z,21.40
2022-07-26T09:10:11.763Z,21.60
2022-07-26T09:12:40.487Z,21.60
2022-07-26T09:15:21.006Z,21.70
2022-07-26T09:17:51.778Z,21.80
2022-07-26T09:20:28.676Z,21.80
2022-07-26T09:23:01.549Z,22.00
2022-07-26T09:25:34.393Z,22.00
2022-07-26T09:28:03.583Z,22.10
2022-07-26T09:30:32.668Z,22.10
2022-07-26T09:33:05.688Z,22.10
2022-07-26T09:35:51.079Z,22.20
2022-07-26T09:38:19.804Z,22.20
2022-07-26T09:40:50.964Z,22.10
2022-07-26T09:43:23.906Z,22.20
2022-07-26T09:46:06.374Z,22.10
2022-07-26T09:49:07.069Z,22.00
2022-07-26T09:51:38.793Z,21.90
2022-07-26T09:54:06.964Z,21.90
2022-07-26T09:56:49.368Z,22.00
2022-07-26T09:59:19.880Z,22.10
2022-07-26T10:01:48.473Z,22.30
2022-07-26T10:04:16.973Z,22.30
2022-07-26T10:06:45.446Z,22.40
2022-07-26T10:09:14.653Z,22.40
2022-07-26T10:12:05.267Z,22.40
2022-07-26T10:14:52.448Z,22.60
2022-07-26T10:17:31.171Z,22.60
2022-07-26T10:20:16.856Z,22.50
2022-07-26T10:22:47.512Z,22.60
2022-07-26T10:25:35.399Z,22.60
2022-07-26T10:28:03.058Z,22.80
2022-07-26T10:30:40.070Z,22.80
2022-07-26T10:33:10.446Z,23.00
2022-07-26T10:35:41.432Z,23.00
2022-07-26T10:38:15.338Z,22.90
2022-07-26T10:41:08.178Z,23.00
2022-07-26T10:43:41.111Z,23.10
2022-07-26T10:46:18.735Z,23.10
2022-07-26T10:49:04.044Z,23.10
2022-07-26T10:51:40.169Z,23.10
2022-07-26T10:54:10.718Z,23.10
2022-07-26T10:56:39.959Z,23.10
2022-07-26T10:59:07.930Z,23.20
2022-07-26T11:01:41.282Z,23.30
2022-07-26T11:04:25.991Z,23.30
2022-07-26T11:06:53.712Z,23.50
2022-07-26T11:09:21.521Z,23.60
2022-07-26T11:11:52.660Z,23.60
2022-07-26T11:14:20.406Z,23.60
2022-07-26T11:16:50.461Z,23.80
2022-07-26T11:19:19.547Z,23.90
2022-07-26T11:21:54.573Z,23.80
2022-07-26T11:24:22.414Z,23.70
2022-07-26T11:26:50.009Z,23.60
2022-07-26T11:29:38.281Z,23.50
2022-07-26T11:32:21.900Z,23.50
2022-07-26T11:35:00.470Z,23.40
2022-07-26T11:37:28.530Z,23.60
2022-07-26T11:39:56.560Z,23.70
2022-07-26T11:42:24.476Z,23.80
2022-07-26T11:44:54.319Z,23.90
2022-07-26T11:47:29.906Z,24.00
2022-07-26T11:50:18.262Z,24.20
2022-07-26T11:52:53.357Z,24.20
2022-07-26T11:55:31.384Z,24.40
2022-07-26T11:58:06.772Z,24.30
2022-07-26T12:00:34.686Z,24.20
2022-07-26T12:03:02.309Z,24.00
2022-07-26T12:05:33.536Z,24.00
2022-07-26T12:08:04.614Z,24.10
2022-07-26T12:10:33.235Z,24.20
2022-07-26T12:13:15.935Z,24.40
2022-07-26T12:15:52.298Z,24.30
2022-07-26T12:18:31.444Z,24.20
2022-07-26T12:21:08.199Z,24.20
2022-07-26T12:23:49.821Z,24.10
2022-07-26T12:26:30.989Z,24.10
2022-07-26T12:29:19.192Z,24.40
2022-07-26T12:32:00.194Z,24.50
2022-07-26T12:34:28.304Z,24.50
2022-07-26T12:36:55.734Z,24.60
2022-07-26T12:39:23.805Z,24.50
2022-07-26T12:41:52.663Z,24.10
2022-07-26T12:44:23.082Z,24.00
2022-07-26T12:46:50.793Z,24.00
2022-07-26T12:49:18.438Z,24.00
2022-07-26T12:51:46.061Z,24.10
2022-07-26T12:54:14.351Z,24.20
2022-07-26T12:56:42.367Z,24.40
2022-07-26T12:59:17.752Z,24.50
2022-07-26T13:01:45.823Z,24.40
2022-07-26T13:04:13.750Z,24.40
2022-07-26T13:06:41.430Z,24.50
2022-07-26T13:09:08.893Z,24.60
2022-07-26T13:11:36.486Z,24.60
2022-07-26T13:14:03.978Z,24.40
2022-07-26T13:16:31.815Z,24.20
2022-07-26T13:18:59.342Z,24.10
2022-07-26T13:21:27.044Z,24.10
2022-07-26T13:24:02.403Z,24.00
2022-07-26T13:26:30.067Z,23.90
2022-07-26T13:28:59.051Z,23.90
2022-07-26T13:31:26.761Z,23.80
2022-07-26T13:33:54.572Z,23.90
2022-07-26T13:36:22.222Z,23.80
2022-07-26T13:38:49.949Z,23.70
2022-07-26T13:41:17.660Z,23.80
2022-07-26T13:43:46.546Z,23.70
2022-07-26T13:46:14.338Z,23.60
2022-07-26T13:49:00.046Z,23.60
2022-07-26T13:51:53.630Z,23.60
2022-07-26T13:54:22.734Z,23.50
2022-07-26T13:56:50.449Z,23.50
2022-07-26T13:59:18.125Z,23.60
2022-07-26T14:01:46.378Z,23.70
2022-07-26T14:04:14.999Z,23.70
2022-07-26T14:06:43.004Z,23.80
2022-07-26T14:09:11.182Z,24.00
2022-07-26T14:11:39.548Z,24.00
2022-07-26T14:14:08.134Z,24.20
2022-07-26T14:16:36.125Z,24.30
2022-07-26T14:19:04.699Z,24.20
2022-07-26T14:21:43.548Z,24.20
2022-07-26T14:24:18.476Z,24.20
2022-07-26T14:26:49.600Z,24.40
2022-07-26T14:29:17.123Z,24.40
2022-07-26T14:31:45.643Z,24.60
2022-07-26T14:34:16.222Z,24.70
2022-07-26T14:36:46.696Z,24.60
2022-07-26T14:39:14.266Z,24.50
2022-07-26T14:41:42.571Z,24.60
2022-07-26T14:44:10.647Z,24.60
2022-07-26T14:46:38.724Z,24.50
2022-07-26T14:49:08.027Z,24.60
2022-07-26T14:51:37.029Z,24.80
2022-07-26T14:54:06.491Z,25.00
2022-07-26T14:56:34.323Z,25.00
2022-07-26T14:59:04.980Z,25.10
2022-07-26T15:01:33.001Z,25.20
2022-07-26T15:04:00.679Z,24.80
2022-07-26T15:06:29.983Z,24.40
2022-07-26T15:08:57.812Z,24.10
2022-07-26T15:11:25.756Z,24.20
2022-07-26T15:13:55.911Z,24.10
2022-07-26T15:16:24.363Z,24.00
2022-07-26T15:18:53.399Z,23.90
2022-07-26T15:21:23.336Z,23.80
2022-07-26T15:23:50.876Z,23.70
2022-07-26T15:26:19.339Z,23.70
2022-07-26T15:28:47.560Z,23.70
2022-07-26T15:31:15.223Z,23.70
2022-07-26T15:33:43.680Z,23.70
2022-07-26T15:36:11.786Z,23.70
2022-07-26T15:38:44.740Z,23.70
2022-07-26T15:41:13.679Z,23.60
2022-07-26T15:43:48.986Z,23.60
2022-07-26T15:46:17.382Z,23.60
2022-07-26T15:48:45.588Z,23.70
2022-07-26T15:51:15.608Z,23.70
2022-07-26T15:53:46.749Z,23.60
2022-07-26T15:56:14.601Z,23.50
2022-07-26T15:58:42.038Z,23.40
2022-07-26T16:01:09.653Z,23.30
2022-07-26T16:03:37.084Z,23.40
2022-07-26T16:06:06.102Z,23.30
2022-07-26T16:08:43.075Z,23.20
2022-07-26T16:11:21.769Z,23.20
2022-07-26T16:13:49.520Z,23.20
2022-07-26T16:16:17.215Z,23.10
2022-07-26T16:18:48.841Z,23.00
2022-07-26T16:21:17.326Z,23.10
2022-07-26T16:23:44.992Z,23.20
2022-07-26T16:26:15.121Z,23.20
2022-07-26T16:28:42.977Z,23.20
2022-07-26T16:31:10.805Z,23.20
2022-07-26T16:33:45.805Z,23.20
2022-07-26T16:36:15.171Z,23.30
2022-07-26T16:38:42.803Z,23.30
2022-07-26T16:41:17.157Z,23.30
2022-07-26T16:43:45.356Z,23.30
2022-07-26T16:46:12.947Z,23.30
2022-07-26T16:48:40.701Z,23.20
2022-07-26T16:51:08.357Z,23.20
2022-07-26T16:53:36.145Z,23.30
2022-07-26T16:56:03.945Z,23.20
2022-07-26T16:58:31.582Z,23.20
2022-07-26T17:00:59.669Z,23.20
2022-07-26T17:03:27.307Z,23.20
2022-07-26T17:05:54.889Z,23.20
2022-07-26T17:08:23.106Z,23.10
2022-07-26T17:10:51.361Z,23.10
2022-07-26T17:13:19.175Z,23.00
2022-07-26T17:15:46.879Z,23.00
2022-07-26T17:18:14.454Z,23.00
2022-07-26T17:20:42.164Z,23.00
2022-07-26T17:23:10.137Z,23.00
2022-07-26T17:25:38.752Z,23.00
2022-07-26T17:28:06.504Z,22.90
2022-07-26T17:30:34.240Z,22.90
2022-07-26T17:33:02.058Z,22.90
2022-07-26T17:35:29.614Z,22.80
2022-07-26T17:37:57.332Z,22.80
2022-07-26T17:40:25.754Z,22.70
2022-07-26T17:42:53.499Z,22.70
2022-07-26T17:45:21.424Z,22.70
2022-07-26T17:47:49.096Z,22.70
2022-07-26T17:50:36.044Z,22.70
2022-07-26T17:53:05.421Z,22.70
2022-07-26T17:55:33.027Z,22.60
2022-07-26T17:58:00.586Z,22.50
2022-07-26T18:00:29.082Z,22.50
2022-07-26T18:02:58.144Z,22.50
2022-07-26T18:05:33.123Z,22.40
2022-07-26T18:08:02.824Z,22.40
2022-07-26T18:10:31.985Z,22.40
2022-07-26T18:12:59.589Z,22.40
2022-07-26T18:15:27.205Z,22.30
2022-07-26T18:17:54.792Z,22.30
2022-07-26T18:20:24.382Z,22.30
2022-07-26T18:22:54.726Z,22.30
2022-07-26T18:25:24.867Z,22.20
2022-07-26T18:27:54.050Z,22.20
2022-07-26T18:30:22.413Z,22.20
2022-07-26T18:32:50.020Z,22.10
2022-07-26T18:35:17.663Z,22.10
2022-07-26T18:37:46.796Z,22.00
2022-07-26T18:40:14.442Z,22.00
2022-07-26T18:42:42.209Z,22.00
2022-07-26T18:45:11.219Z,22.00
2022-07-26T18:47:41.732Z,21.90
2022-07-26T18:50:12.481Z,21.90
2022-07-26T18:52:46.017Z,21.80
2022-07-26T18:55:16.252Z,21.80
2022-07-26T18:57:44.748Z,21.70
2022-07-26T19:00:15.366Z,21.70
2022-07-26T19:02:45.071Z,21.70
2022-07-26T19:05:13.795Z,21.80
2022-07-26T19:07:42.514Z,21.80
2022-07-26T19:10:10.654Z,21.70
2022-07-26T19:12:38.836Z,21.70
2022-07-26T19:15:08.566Z,21.60
2022-07-26T19:17:37.747Z,21.60
2022-07-26T19:20:07.418Z,21.60
2022-07-26T19:22:35.664Z,21.60
2022-07-26T19:25:03.959Z,21.50
2022-07-26T19:27:31.571Z,21.60
2022-07-26T19:29:59.079Z,21.50
2022-07-26T19:32:30.461Z,21.50
2022-07-26T19:35:01.643Z,21.50
2022-07-26T19:37:29.600Z,21.50
2022-07-26T19:40:00.602Z,21.50
2022-07-26T19:42:30.774Z,21.50
2022-07-26T19:44:58.772Z,21.50
2022-07-26T19:47:26.972Z,21.50
2022-07-26T19:49:54.597Z,21.40
2022-07-26T19:52:22.120Z,21.40
2022-07-26T19:54:49.552Z,21.40
2022-07-26T19:57:19.834Z,21.30
2022-07-26T19:59:48.166Z,21.30
2022-07-26T20:02:16.336Z,21.30
2022-07-26T20:04:46.005Z,21.10
2022-07-26T20:07:19.790Z,21.10
2022-07-26T20:09:50.000Z,21.20
2022-07-26T20:12:18.866Z,21.10
2022-07-26T20:14:46.886Z,20.90
2022-07-26T20:17:15.248Z,20.90
2022-07-26T20:19:43.170Z,21.00
2022-07-26T20:22:11.513Z,20.90
2022-07-26T20:24:39.751Z,20.90
2022-07-26T20:27:07.790Z,21.00
2022-07-26T20:29:35.648Z,21.00
2022-07-26T20:32:03.551Z,21.00
2022-07-26T20:34:31.099Z,21.00
2022-07-26T20:36:58.666Z,21.00
2022-07-26T20:39:28.017Z,21.00
2022-07-26T20:41:55.563Z,21.00
2022-07-26T20:44:28.179Z,20.90
2022-07-26T20:46:56.277Z,21.00
2022-07-26T20:49:23.919Z,20.80
2022-07-26T20:51:51.613Z,20.60
2022-07-26T20:54:19.249Z,20.50
2022-07-26T20:56:46.838Z,20.70
2022-07-26T20:59:14.982Z,20.50
2022-07-26T21:01:43.977Z,20.60
2022-07-26T21:04:12.212Z,20.50
2022-07-26T21:06:40.143Z,20.60
2022-07-26T21:09:09.795Z,20.60
2022-07-26T21:11:39.623Z,20.50
2022-07-26T21:14:07.385Z,20.60
2022-07-26T21:16:35.182Z,20.60
2022-07-26T21:19:03.917Z,20.60
2022-07-26T21:21:31.717Z,20.60
2022-07-26T21:23:59.134Z,20.50
2022-07-26T21:26:26.836Z,20.40
2022-07-26T21:28:54.315Z,20.20
2022-07-26T21:31:22.112Z,20.20
2022-07-26T21:33:49.698Z,20.20
2022-07-26T21:36:17.360Z,20.10
2022-07-26T21:38:44.931Z,20.20
2022-07-26T21:41:13.438Z,20.20
2022-07-26T21:43:41.748Z,20.30
2022-07-26T21:46:12.748Z,20.30
2022-07-26T21:48:41.620Z,20.10
2022-07-26T21:51:12.396Z,20.20
2022-07-26T21:53:40.245Z,20.20
2022-07-26T21:56:08.173Z,20.10
2022-07-26T21:58:36.836Z,20.20
2022-07-26T22:01:11.305Z,20.20
2022-07-26T22:03:40.816Z,20.20
2022-07-26T22:06:09.061Z,20.20
2022-07-26T22:08:37.888Z,20.20
2022-07-26T22:11:05.779Z,20.10
2022-07-26T22:13:33.796Z,19.90
2022-07-26T22:16:01.401Z,19.90
2022-07-26T22:18:29.122Z,19.80
2022-07-26T22:20:56.822Z,19.80
2022-07-26T22:23:30.367Z,19.60
2022-07-26T22:26:02.743Z,19.40
2022-07-26T22:28:32.174Z,19.30
2022-07-26T22:31:00.136Z,19.50
2022-07-26T22:33:27.715Z,19.50
2022-07-26T22:35:55.419Z,19.30
2022-07-26T22:38:23.088Z,19.20
2022-07-26T22:40:50.989Z,19.40
2022-07-26T22:43:18.711Z,19.30
2022-07-26T22:45:46.341Z,19.30
2022-07-26T22:48:14.015Z,19.20
2022-07-26T22:50:41.530Z,19.30
2022-07-26T22:53:09.220Z,19.20
2022-07-26T22:55:37.016Z,19.30
2022-07-26T22:58:04.741Z,19.30
2022-07-26T23:00:32.329Z,19.10
2022-07-26T23:02:59.946Z,19.10
2022-07-26T23:05:36.621Z,18.90
2022-07-26T23:08:45.173Z,19.10
2022-07-26T23:11:01.386Z,18.90
2022-07-26T23:13:29.086Z,18.70
2022-07-26T23:16:00.540Z,18.70
2022-07-26T23:18:29.411Z,18.80
2022-07-26T23:20:56.861Z,18.60
2022-07-26T23:23:25.317Z,18.80
2022-07-26T23:25:59.022Z,18.70
2022-07-26T23:28:37.311Z,18.80
2022-07-26T23:31:08.033Z,18.60
2022-07-26T23:33:51.977Z,18.30
2022-07-26T23:36:27.275Z,18.40
2022-07-26T23:38:55.971Z,18.50
2022-07-26T23:41:24.074Z,18.50
2022-07-26T23:43:52.180Z,18.40
2022-07-26T23:46:19.959Z,18.40
2022-07-26T23:48:48.033Z,18.40
2022-07-26T23:51:15.802Z,18.40
2022-07-26T23:53:43.712Z,18.40
2022-07-26T23:56:11.289Z,18.40
2022-07-26T23:58:38.873Z,18.40
